createdAt,value
2022-10-24T00:01:16.185Z,16.30
2022-10-24T00:03:42.975Z,15.80
2022-10-24T00:06:12.324Z,15.70
2022-10-24T00:08:40.437Z,15.70
2022-10-24T00:11:13.108Z,15.70
2022-10-24T00:13:40.255Z,15.70
2022-10-24T00:16:07.721Z,15.80
2022-10-24T00:18:34.432Z,15.80
2022-10-24T00:21:01.428Z,15.80
2022-10-24T00:23:28.150Z,15.60
2022-10-24T00:25:55.009Z,15.70
2022-10-24T00:28:21.767Z,15.70
2022-10-24T00:30:52.591Z,15.60
2022-10-24T00:33:19.591Z,15.70
2022-10-24T00:35:46.760Z,15.50
2022-10-24T00:38:13.484Z,15.60
2022-10-24T00:40:40.791Z,15.60
2022-10-24T00:43:19.855Z,15.70
2022-10-24T00:45:57.531Z,15.60
2022-10-24T00:48:31.552Z,15.50
2022-10-24T00:51:03.341Z,15.40
2022-10-24T00:53:33.962Z,15.20
2022-10-24T00:56:03.501Z,15.50
2022-10-24T00:58:32.701Z,15.30
2022-10-24T01:01:00.089Z,15.30
2022-10-24T01:03:27.175Z,15.20
2022-10-24T01:06:06.037Z,15.20
2022-10-24T01:08:53.031Z,15.10
2022-10-24T01:11:32.354Z,15.30
2022-10-24T01:14:40.417Z,15.00
2022-10-24T01:17:14.558Z,15.00
2022-10-24T01:20:01.551Z,15.00
2022-10-24T01:22:53.242Z,14.90
2022-10-24T01:25:23.061Z,14.90
2022-10-24T01:27:59.264Z,14.90
2022-10-24T01:30:29.358Z,14.90
2022-10-24T01:33:04.335Z,15.00
2022-10-24T01:35:55.071Z,15.00
2022-10-24T01:38:41.989Z,15.00
2022-10-24T01:41:21.036Z,14.80
2022-10-24T01:46:32.690Z,15.00
2022-10-24T01:49:05.259Z,15.00
2022-10-24T01:51:34.153Z,15.00
2022-10-24T01:54:01.919Z,15.00
2022-10-24T01:56:28.706Z,15.20
2022-10-24T01:59:08.609Z,15.10
2022-10-24T02:01:37.268Z,15.10
2022-10-24T02:04:08.207Z,15.20
2022-10-24T02:06:41.897Z,15.20
2022-10-24T02:09:15.917Z,15.20
2022-10-24T02:11:44.681Z,15.30
2022-10-24T02:14:21.109Z,15.30
2022-10-24T02:16:48.135Z,15.30
2022-10-24T02:19:24.577Z,15.30
2022-10-24T02:22:02.136Z,15.30
2022-10-24T02:24:52.342Z,15.20
2022-10-24T02:27:24.375Z,15.30
2022-10-24T02:29:58.196Z,15.20
2022-10-24T02:32:33.893Z,15.20
2022-10-24T02:35:03.091Z,15.20
2022-10-24T02:37:31.972Z,15.30
2022-10-24T02:40:00.787Z,15.30
2022-10-24T02:44:56.938Z,15.30
2022-10-24T02:47:25.601Z,15.60
2022-10-24T02:49:52.958Z,15.30
2022-10-24T02:52:20.704Z,15.30
2022-10-24T02:54:47.395Z,15.30
2022-10-24T02:57:15.158Z,15.20
2022-10-24T02:59:41.875Z,15.30
2022-10-24T03:02:08.853Z,15.20
2022-10-24T03:04:35.568Z,15.20
2022-10-24T03:07:02.394Z,15.30
2022-10-24T03:09:29.071Z,15.20
2022-10-24T03:11:55.946Z,15.50
2022-10-24T03:14:22.856Z,15.20
2022-10-24T03:16:49.543Z,15.30
2022-10-24T03:19:16.551Z,15.50
2022-10-24T03:21:43.335Z,15.30
2022-10-24T03:24:10.537Z,15.30
2022-10-24T03:26:37.363Z,15.60
2022-10-24T03:29:04.121Z,15.30
2022-10-24T03:31:31.708Z,15.90
2022-10-24T03:33:59.113Z,15.50
2022-10-24T03:36:26.225Z,15.50
2022-10-24T03:38:53.011Z,15.50
2022-10-24T03:41:19.713Z,15.50
2022-10-24T03:43:46.491Z,15.60
2022-10-24T03:46:13.220Z,15.60
2022-10-24T03:48:39.906Z,15.60
2022-10-24T03:51:06.791Z,15.70
2022-10-24T03:53:33.480Z,16.10
2022-10-24T03:56:00.471Z,15.30
2022-10-24T03:58:27.716Z,16.20
2022-10-24T04:00:57.323Z,15.60
2022-10-24T04:03:25.093Z,15.80
2022-10-24T04:05:52.401Z,15.70
2022-10-24T04:08:19.357Z,15.70
2022-10-24T04:10:46.155Z,15.80
2022-10-24T04:13:12.869Z,15.70
2022-10-24T04:15:39.682Z,15.70
2022-10-24T04:18:08.458Z,15.70
2022-10-24T04:20:35.264Z,15.70
2022-10-24T04:23:04.468Z,15.70
2022-10-24T04:25:31.567Z,15.70
2022-10-24T04:27:58.244Z,15.70
2022-10-24T04:30:25.367Z,15.70
2022-10-24T04:32:52.488Z,15.70
2022-10-24T04:35:19.394Z,15.80
2022-10-24T04:37:46.130Z,15.70
2022-10-24T04:40:13.037Z,15.70
2022-10-24T04:42:40.253Z,15.70
2022-10-24T04:45:07.988Z,15.70
2022-10-24T04:47:34.792Z,15.70
2022-10-24T04:50:02.098Z,15.70
2022-10-24T04:52:28.791Z,15.70
2022-10-24T04:54:55.553Z,15.70
2022-10-24T04:57:22.341Z,15.70
2022-10-24T04:59:49.043Z,15.70
2022-10-24T05:02:15.845Z,15.60
2022-10-24T05:04:42.562Z,15.60
2022-10-24T05:07:09.271Z,15.60
2022-10-24T05:09:35.962Z,15.80
2022-10-24T05:12:02.887Z,15.60
2022-10-24T05:14:29.691Z,15.60
2022-10-24T05:16:56.476Z,15.50
2022-10-24T05:19:26.232Z,15.50
2022-10-24T05:21:52.926Z,15.50
2022-10-24T05:24:19.662Z,15.70
2022-10-24T05:26:46.406Z,15.50
2022-10-24T05:29:13.097Z,15.40
2022-10-24T05:31:40.306Z,15.40
2022-10-24T05:34:07.008Z,15.40
2022-10-24T05:36:33.658Z,15.40
2022-10-24T05:39:00.432Z,15.50
2022-10-24T05:41:27.151Z,15.40
2022-10-24T05:43:53.849Z,15.60
2022-10-24T05:46:21.350Z,15.60
2022-10-24T05:48:48.626Z,15.60
2022-10-24T05:51:15.372Z,15.60
2022-10-24T05:53:42.182Z,15.70
2022-10-24T05:56:09.208Z,15.70
2022-10-24T05:58:36.140Z,15.70
2022-10-24T06:01:03.152Z,15.80
2022-10-24T06:03:29.899Z,15.70
2022-10-24T06:05:56.583Z,15.80
2022-10-24T06:08:23.427Z,15.80
2022-10-24T06:10:51.670Z,16.10
2022-10-24T06:13:18.833Z,15.80
2022-10-24T06:15:45.832Z,15.80
2022-10-24T06:18:12.640Z,15.80
2022-10-24T06:20:39.405Z,15.80
2022-10-24T06:23:06.348Z,15.80
2022-10-24T06:25:33.322Z,15.80
2022-10-24T06:28:00.558Z,15.70
2022-10-24T06:30:27.804Z,15.70
2022-10-24T06:32:54.645Z,15.70
2022-10-24T06:35:21.484Z,15.80
2022-10-24T06:37:48.661Z,15.80
2022-10-24T06:40:16.504Z,15.80
2022-10-24T06:42:43.377Z,15.70
2022-10-24T06:45:10.490Z,15.40
2022-10-24T06:47:37.193Z,15.80
2022-10-24T06:50:04.820Z,15.80
2022-10-24T06:52:31.519Z,15.70
2022-10-24T06:54:58.221Z,15.80
2022-10-24T06:57:24.982Z,15.90
2022-10-24T06:59:52.879Z,15.90
2022-10-24T07:02:22.088Z,15.90
2022-10-24T07:04:48.820Z,15.90
2022-10-24T07:07:20.334Z,16.10
2022-10-24T07:09:54.404Z,16.20
2022-10-24T07:12:22.798Z,16.10
2022-10-24T07:14:49.465Z,16.30
2022-10-24T07:17:17.166Z,16.30
2022-10-24T07:19:44.657Z,16.40
2022-10-24T07:22:11.490Z,16.40
2022-10-24T07:24:38.536Z,16.50
2022-10-24T07:27:05.221Z,16.50
2022-10-24T07:29:32.000Z,16.50
2022-10-24T07:31:59.549Z,16.60
2022-10-24T07:34:26.266Z,16.50
2022-10-24T07:36:53.373Z,16.50
2022-10-24T07:39:20.070Z,16.50
2022-10-24T07:41:46.773Z,16.60
2022-10-24T07:44:13.568Z,17.50
2022-10-24T07:46:42.074Z,16.60
2022-10-24T07:49:09.983Z,16.60
2022-10-24T07:51:36.780Z,16.70
2022-10-24T07:54:04.204Z,16.70
2022-10-24T07:56:30.949Z,16.70
2022-10-24T07:58:58.784Z,16.10
2022-10-24T08:01:26.465Z,16.70
2022-10-24T08:03:53.592Z,16.70
2022-10-24T08:06:22.969Z,16.40
2022-10-24T08:08:49.721Z,16.70
2022-10-24T08:11:19.426Z,16.80
2022-10-24T08:13:46.191Z,16.80
2022-10-24T08:16:14.775Z,16.90
2022-10-24T08:18:41.779Z,17.00
2022-10-24T08:21:11.134Z,17.10
2022-10-24T08:23:43.833Z,17.20
2022-10-24T08:26:14.493Z,17.20
2022-10-24T08:28:42.212Z,17.30
2022-10-24T08:31:12.736Z,17.40
2022-10-24T08:33:39.888Z,17.50
2022-10-24T08:36:25.877Z,17.70
2022-10-24T08:38:52.974Z,17.50
2022-10-24T08:41:59.547Z,17.50
2022-10-24T08:44:35.628Z,17.50
2022-10-24T08:47:04.176Z,17.50
2022-10-24T08:49:50.319Z,17.80
2022-10-24T08:52:35.093Z,17.50
2022-10-24T08:55:25.106Z,17.60
2022-10-24T08:58:00.848Z,17.60
2022-10-24T09:00:36.514Z,17.60
2022-10-24T09:03:13.377Z,18.00
2022-10-24T09:05:49.467Z,17.60
2022-10-24T09:08:40.108Z,17.60
2022-10-24T09:11:07.800Z,17.60
2022-10-24T09:13:38.269Z,17.60
2022-10-24T09:16:05.583Z,17.60
2022-10-24T09:18:41.538Z,17.60
2022-10-24T09:21:12.676Z,17.80
2022-10-24T09:23:39.785Z,17.60
2022-10-24T09:26:18.342Z,17.90
2022-10-24T09:28:45.444Z,18.00
2022-10-24T09:31:21.788Z,17.90
2022-10-24T09:33:50.881Z,17.90
2022-10-24T09:36:20.366Z,17.70
2022-10-24T09:38:49.225Z,17.80
2022-10-24T09:41:25.360Z,17.70
2022-10-24T09:44:00.657Z,17.70
2022-10-24T09:46:38.408Z,17.80
2022-10-24T09:49:22.703Z,17.60
2022-10-24T09:52:19.578Z,17.70
2022-10-24T09:54:47.351Z,17.70
2022-10-24T09:57:17.988Z,17.70
2022-10-24T09:59:45.726Z,17.60
2022-10-24T10:02:37.696Z,17.50
2022-10-24T10:05:04.664Z,17.60
2022-10-24T10:07:36.157Z,17.70
2022-10-24T10:10:06.101Z,17.80
2022-10-24T10:12:35.815Z,17.90
2022-10-24T10:15:23.040Z,17.90
2022-10-24T10:17:52.237Z,18.00
2022-10-24T10:20:28.569Z,18.10
2022-10-24T10:22:55.250Z,18.20
2022-10-24T10:25:34.163Z,18.10
2022-10-24T10:28:03.088Z,18.20
2022-10-24T10:30:30.094Z,18.20
2022-10-24T10:33:14.154Z,18.10
2022-10-24T10:35:58.603Z,17.90
2022-10-24T10:38:44.697Z,17.90
2022-10-24T10:41:14.450Z,17.90
2022-10-24T10:43:52.526Z,17.00
2022-10-24T10:46:48.743Z,17.60
2022-10-24T10:49:28.020Z,17.80
2022-10-24T10:52:01.093Z,17.90
2022-10-24T10:54:30.807Z,17.90
2022-10-24T10:57:07.949Z,17.90
2022-10-24T10:59:40.750Z,18.00
2022-10-24T11:02:42.813Z,17.90
2022-10-24T11:05:20.139Z,17.90
2022-10-24T11:07:55.353Z,18.00
2022-10-24T11:10:27.996Z,18.00
2022-10-24T11:12:58.667Z,17.90
2022-10-24T11:15:34.292Z,17.90
2022-10-24T11:18:22.767Z,18.10
2022-10-24T11:21:15.051Z,18.20
2022-10-24T11:23:56.222Z,18.30
2022-10-24T11:27:03.796Z,18.30
2022-10-24T11:29:45.551Z,18.40
2022-10-24T11:32:33.609Z,18.40
2022-10-24T11:35:14.904Z,18.40
2022-10-24T11:37:44.999Z,18.30
2022-10-24T11:40:26.717Z,18.30
2022-10-24T11:43:07.048Z,18.40
2022-10-24T11:45:56.365Z,18.50
2022-10-24T11:51:15.636Z,18.50
2022-10-24T11:53:55.464Z,18.60
2022-10-24T11:56:27.308Z,18.60
2022-10-24T11:58:54.270Z,18.60
2022-10-24T12:01:37.998Z,18.60
2022-10-24T12:04:17.194Z,18.70
2022-10-24T12:07:06.964Z,18.80
2022-10-24T12:10:07.470Z,18.80
2022-10-24T12:12:56.897Z,18.80
2022-10-24T12:15:40.597Z,18.70
2022-10-24T12:18:26.401Z,18.70
2022-10-24T12:21:01.658Z,18.50
2022-10-24T12:23:29.070Z,18.40
2022-10-24T12:26:25.081Z,18.30
2022-10-24T12:28:56.057Z,18.40
2022-10-24T12:31:29.359Z,18.00
2022-10-24T12:34:22.968Z,17.90
2022-10-24T12:37:03.585Z,17.80
2022-10-24T12:39:37.486Z,17.70
2022-10-24T12:42:12.821Z,17.70
2022-10-24T12:44:41.318Z,17.30
2022-10-24T12:47:26.863Z,17.90
2022-10-24T12:49:54.376Z,17.90
2022-10-24T12:52:49.350Z,17.90
2022-10-24T12:55:39.954Z,17.90
2022-10-24T12:58:28.231Z,17.90
2022-10-24T13:01:01.072Z,17.80
2022-10-24T13:03:49.041Z,17.70
2022-10-24T13:06:27.642Z,17.70
2022-10-24T13:09:28.629Z,17.70
2022-10-24T13:12:21.419Z,17.90
2022-10-24T13:14:48.035Z,18.00
2022-10-24T13:17:22.772Z,18.10
2022-10-24T13:20:22.476Z,18.00
2022-10-24T13:22:51.006Z,18.10
2022-10-24T13:25:20.307Z,18.00
2022-10-24T13:28:24.966Z,18.00
2022-10-24T13:31:17.391Z,17.80
2022-10-24T13:33:45.700Z,17.90
2022-10-24T13:36:23.157Z,17.90
2022-10-24T13:39:04.238Z,17.80
2022-10-24T13:41:41.768Z,17.70
2022-10-24T13:44:18.962Z,17.60
2022-10-24T13:46:54.478Z,17.40
2022-10-24T13:49:48.007Z,17.40
2022-10-24T13:52:20.704Z,17.30
2022-10-24T13:54:56.385Z,17.50
2022-10-24T13:57:33.820Z,17.40
2022-10-24T14:00:05.624Z,17.20
2022-10-24T14:02:38.852Z,17.10
2022-10-24T14:05:06.147Z,17.00
2022-10-24T14:07:34.100Z,17.00
2022-10-24T14:10:09.380Z,17.00
2022-10-24T14:12:39.309Z,16.80
2022-10-24T14:15:19.685Z,16.80
2022-10-24T14:17:59.102Z,16.80
2022-10-24T14:20:35.097Z,16.80
2022-10-24T14:23:23.188Z,16.80
2022-10-24T14:25:56.654Z,16.80
2022-10-24T14:28:27.857Z,16.70
2022-10-24T14:30:57.539Z,16.60
2022-10-24T14:33:27.828Z,16.70
2022-10-24T14:35:58.071Z,16.90
2022-10-24T14:38:27.243Z,16.70
2022-10-24T14:41:06.654Z,16.80
2022-10-24T14:43:35.509Z,17.10
2022-10-24T14:46:05.213Z,16.70
2022-10-24T14:48:32.626Z,16.80
2022-10-24T14:51:14.447Z,16.80
2022-10-24T14:53:43.626Z,16.80
2022-10-24T14:56:34.674Z,16.70
2022-10-24T14:59:05.037Z,16.70
2022-10-24T15:01:32.044Z,16.70
2022-10-24T15:04:04.581Z,17.10
2022-10-24T15:06:44.751Z,16.80
2022-10-24T15:09:11.452Z,16.80
2022-10-24T15:11:47.827Z,16.80
2022-10-24T15:14:34.149Z,16.80
2022-10-24T15:17:06.171Z,16.80
2022-10-24T15:19:38.074Z,16.80
2022-10-24T15:22:04.763Z,16.80
2022-10-24T15:24:31.618Z,16.90
2022-10-24T15:27:41.497Z,16.80
2022-10-24T15:30:17.531Z,16.90
2022-10-24T15:32:44.785Z,16.80
2022-10-24T15:35:14.165Z,16.80
2022-10-24T15:37:51.790Z,16.80
2022-10-24T15:40:22.809Z,16.80
2022-10-24T15:42:49.630Z,16.80
2022-10-24T15:45:17.696Z,16.80
2022-10-24T15:47:45.106Z,16.80
2022-10-24T15:50:16.567Z,16.80
2022-10-24T15:52:49.003Z,16.80
2022-10-24T15:55:25.885Z,16.80
2022-10-24T15:57:52.952Z,16.80
2022-10-24T16:00:22.693Z,16.70
2022-10-24T16:02:52.578Z,16.70
2022-10-24T16:05:23.769Z,16.60
2022-10-24T16:07:54.276Z,16.60
2022-10-24T16:10:22.729Z,16.50
2022-10-24T16:12:50.430Z,16.40
2022-10-24T16:15:29.315Z,16.90
2022-10-24T16:17:56.205Z,16.40
2022-10-24T16:20:22.951Z,16.30
2022-10-24T16:22:50.443Z,16.30
2022-10-24T16:25:22.260Z,16.20
2022-10-24T16:27:49.319Z,16.20
2022-10-24T16:30:19.845Z,16.20
2022-10-24T16:32:47.433Z,16.10
2022-10-24T16:35:25.806Z,16.10
2022-10-24T16:37:53.985Z,16.10
2022-10-24T16:40:21.494Z,16.30
2022-10-24T16:42:53.293Z,16.00
2022-10-24T16:45:21.459Z,15.90
2022-10-24T16:47:48.542Z,15.80
2022-10-24T16:50:18.506Z,15.70
2022-10-24T16:52:45.563Z,16.10
2022-10-24T16:55:14.059Z,15.70
2022-10-24T16:57:40.912Z,15.60
2022-10-24T17:00:09.496Z,15.80
2022-10-24T17:02:36.472Z,15.60
2022-10-24T17:05:04.540Z,17.50
2022-10-24T17:07:31.505Z,15.90
2022-10-24T17:09:58.257Z,15.50
2022-10-24T17:12:26.634Z,15.50
2022-10-24T17:14:54.541Z,15.50
2022-10-24T17:17:21.695Z,15.50
2022-10-24T17:19:49.433Z,15.30
2022-10-24T17:22:16.560Z,15.30
2022-10-24T17:24:43.553Z,15.30
2022-10-24T17:27:15.757Z,15.30
2022-10-24T17:29:43.429Z,15.20
2022-10-24T17:32:14.221Z,15.10
2022-10-24T17:34:43.442Z,15.10
2022-10-24T17:37:35.367Z,15.00
2022-10-24T17:40:18.488Z,15.10
2022-10-24T17:42:47.988Z,15.00
2022-10-24T17:45:21.055Z,14.90
2022-10-24T17:47:48.651Z,14.90
2022-10-24T17:50:20.412Z,14.90
2022-10-24T17:52:51.011Z,14.90
2022-10-24T17:55:44.636Z,15.40
2022-10-24T17:58:09.356Z,14.80
2022-10-24T18:00:38.067Z,14.80
2022-10-24T18:03:08.866Z,14.50
2022-10-24T18:05:38.378Z,14.70
2022-10-24T18:08:10.951Z,14.60
2022-10-24T18:10:41.447Z,14.70
2022-10-24T18:13:09.771Z,14.10
2022-10-24T18:15:37.274Z,14.40
2022-10-24T18:18:04.836Z,15.70
2022-10-24T18:20:32.317Z,14.50
2022-10-24T18:22:59.896Z,14.40
2022-10-24T18:25:27.951Z,14.40
2022-10-24T18:27:56.410Z,14.10
2022-10-24T18:30:23.201Z,14.70
2022-10-24T18:32:50.332Z,14.30
2022-10-24T18:35:17.351Z,15.60
2022-10-24T18:37:44.098Z,14.50
2022-10-24T18:40:12.250Z,14.20
2022-10-24T18:42:53.763Z,14.20
2022-10-24T18:45:24.031Z,14.20
2022-10-24T18:47:52.512Z,14.20
2022-10-24T18:50:21.934Z,14.20
2022-10-24T18:53:00.485Z,14.20
2022-10-24T18:55:29.084Z,14.20
2022-10-24T18:57:56.634Z,14.20
2022-10-24T19:00:32.499Z,14.20
2022-10-24T19:03:11.378Z,14.10
2022-10-24T19:06:07.800Z,14.20
2022-10-24T19:08:34.669Z,14.10
2022-10-24T19:11:01.555Z,14.10
2022-10-24T19:13:28.484Z,14.20
2022-10-24T19:16:00.443Z,14.20
2022-10-24T19:18:33.102Z,13.90
2022-10-24T19:21:00.459Z,14.00
2022-10-24T19:23:27.406Z,14.40
2022-10-24T19:25:54.296Z,14.40
2022-10-24T19:28:21.526Z,15.40
2022-10-24T19:30:49.082Z,14.40
2022-10-24T19:33:16.687Z,13.90
2022-10-24T19:35:47.767Z,14.50
2022-10-24T19:38:16.378Z,14.60
2022-10-24T19:40:47.456Z,15.90
2022-10-24T19:43:14.445Z,14.10
2022-10-24T19:45:49.899Z,14.50
2022-10-24T19:48:23.095Z,14.80
2022-10-24T19:50:50.285Z,14.70
2022-10-24T19:53:17.925Z,14.50
2022-10-24T19:55:45.276Z,14.70
2022-10-24T19:58:14.711Z,15.80
2022-10-24T20:00:41.823Z,15.50
2022-10-24T20:03:08.948Z,15.00
2022-10-24T20:05:36.227Z,14.60
2022-10-24T20:08:03.234Z,14.80
2022-10-24T20:10:30.061Z,14.60
2022-10-24T20:12:56.871Z,15.40
2022-10-24T20:15:23.576Z,14.50
2022-10-24T20:17:50.723Z,14.30
2022-10-24T20:20:19.767Z,14.50
2022-10-24T20:22:46.693Z,14.50
2022-10-24T20:25:13.648Z,15.90
2022-10-24T20:27:40.582Z,14.40
2022-10-24T20:30:08.236Z,15.40
2022-10-24T20:32:34.945Z,14.40
2022-10-24T20:35:01.767Z,14.50
2022-10-24T20:37:28.470Z,14.40
2022-10-24T20:39:55.149Z,14.40
2022-10-24T20:42:22.331Z,14.70
2022-10-24T20:44:49.103Z,14.40
2022-10-24T20:47:15.844Z,14.20
2022-10-24T20:49:42.534Z,14.30
2022-10-24T20:52:09.350Z,14.10
2022-10-24T20:54:36.550Z,14.10
2022-10-24T20:57:03.322Z,14.30
2022-10-24T20:59:30.084Z,15.00
2022-10-24T21:01:59.684Z,14.00
2022-10-24T21:04:26.435Z,14.20
2022-10-24T21:06:53.259Z,14.30
2022-10-24T21:09:20.229Z,14.10
2022-10-24T21:11:47.535Z,14.10
2022-10-24T21:14:16.232Z,14.00
2022-10-24T21:16:43.040Z,14.50
2022-10-24T21:19:09.806Z,14.00
2022-10-24T21:21:36.642Z,14.50
2022-10-24T21:24:05.972Z,14.80
2022-10-24T21:26:38.507Z,14.30
2022-10-24T21:29:31.241Z,13.70
2022-10-24T21:31:52.719Z,14.40
2022-10-24T21:34:20.124Z,14.00
2022-10-24T21:36:47.052Z,15.30
2022-10-24T21:39:15.256Z,13.90
2022-10-24T21:41:42.783Z,15.60
2022-10-24T21:44:14.453Z,14.40
2022-10-24T21:46:42.554Z,13.80
2022-10-24T21:49:10.321Z,14.00
2022-10-24T21:51:39.346Z,14.30
2022-10-24T21:54:14.629Z,13.50
2022-10-24T21:56:41.423Z,14.00
2022-10-24T21:59:12.743Z,14.50
2022-10-24T22:01:40.979Z,14.30
2022-10-24T22:04:08.818Z,13.50
2022-10-24T22:06:36.619Z,13.90
2022-10-24T22:09:06.332Z,13.80
2022-10-24T22:11:35.199Z,13.90
2022-10-24T22:14:04.320Z,13.90
2022-10-24T22:16:32.251Z,13.80
2022-10-24T22:19:06.093Z,14.30
2022-10-24T22:21:44.223Z,15.40
2022-10-24T22:24:17.445Z,14.00
2022-10-24T22:26:45.802Z,13.90
2022-10-24T22:29:20.017Z,13.90
2022-10-24T22:31:47.846Z,13.80
2022-10-24T22:34:17.363Z,13.90
2022-10-24T22:37:20.006Z,13.80
2022-10-24T22:39:47.054Z,13.80
2022-10-24T22:42:19.330Z,13.80
2022-10-24T22:44:47.869Z,14.00
2022-10-24T22:47:33.463Z,13.70
2022-10-24T22:50:10.415Z,13.70
2022-10-24T22:52:37.472Z,13.60
2022-10-24T22:55:05.787Z,13.60
2022-10-24T23:00:07.842Z,13.60
2022-10-24T23:02:40.883Z,13.40
2022-10-24T23:05:29.206Z,13.60
2022-10-24T23:08:03.849Z,13.50
2022-10-24T23:10:30.735Z,13.50
2022-10-24T23:12:58.807Z,13.80
2022-10-24T23:15:25.868Z,13.50
2022-10-24T23:17:52.832Z,13.50
2022-10-24T23:20:32.359Z,13.50
2022-10-24T23:23:16.577Z,13.50
2022-10-24T23:25:52.372Z,13.50
2022-10-24T23:28:33.395Z,13.10
2022-10-24T23:31:00.449Z,13.50
2022-10-24T23:33:29.383Z,13.50
2022-10-24T23:36:00.145Z,13.50
2022-10-24T23:38:27.516Z,13.50
2022-10-24T23:40:54.826Z,13.40
2022-10-24T23:43:23.282Z,13.40
2022-10-24T23:46:09.471Z,13.70
2022-10-24T23:48:55.846Z,13.40
2022-10-24T23:51:31.257Z,13.40
2022-10-24T23:53:58.348Z,14.00
2022-10-24T23:56:28.611Z,13.30
2022-10-24T23:58:59.114Z,13.40
